Latest Weather Observations for Wudinna Airport

IDS60801

Issued at 11:31 pm CST Saturday 25 June 2016 (issued every 30 minutes, with the page automatically refreshed every 10 minutes)

About weather observations | Map of weather stations | Latest weather observations for SA | Other Formats
Station Details ID: 018083 Name: WUDINNA AERO Lat: -33.04 Lon: 135.45 Height: 86.4 m
Data from the previous 72 hours. | See also: Recent months at Wudinna Airport
Date/Time
CST
Temp
°C
App
Temp
°C
Dew
Point
°C
Rel
Hum
%
Delta-T
°C
Wind Press
QNH
hPa
Press
MSL
hPa
Rain since
9am
mm
Dir  Spd
km/h
Gust
km/h
Spd
kts
Gust
kts
25/11:30pm 8.9 6.3 6.3 84 1.2 N 9 11 5 6 1019.9 - 0.0
25/11:00pm 8.6 5.7 6.6 87 0.9 ENE 11 13 6 7 1019.4 - 0.0
25/10:30pm 8.7 6.6 6.8 88 0.9 NNE 7 9 4 5 1020.1 - 0.0
25/10:00pm 8.6 7.1 6.6 87 0.9 NE 4 7 2 4 1020.3 - 0.0
25/09:30pm 8.8 6.2 6.2 84 1.2 NNE 9 13 5 7 1020.2 - 0.0
25/09:00pm 9.0 6.1 6.3 83 1.2 N 11 15 6 8 1020.7 1020.7 0.0
25/08:30pm 9.1 6.3 6.9 86 1.0 N 11 13 6 7 1020.9 - 0.0
25/08:00pm 8.7 6.2 6.7 87 0.9 NNE 9 13 5 7 1020.9 - 0.0
25/07:30pm 9.1 6.6 6.7 85 1.1 NNE 9 13 5 7 1020.3 - 0.0
25/07:00pm 9.5 6.3 6.9 84 1.2 N 13 15 7 8 1021.2 - 0.0
25/06:30pm 9.4 6.6 6.8 84 1.2 NNE 11 13 6 7 1020.2 - 0.0
25/06:00pm 9.9 7.5 7.0 82 1.4 N 9 11 5 6 1020.7 1020.7 0.0
25/05:30pm 9.7 7.8 7.6 87 1.0 N 7 9 4 5 1020.3 - 0.0
25/05:00pm 10.5 7.4 7.4 81 1.5 NNE 13 17 7 9 1020.5 - 0.0
25/04:30pm 11.0 6.5 6.2 72 2.3 N 19 24 10 13 1020.4 - 0.0
25/04:00pm 12.5 8.5 6.5 67 2.9 N 17 22 9 12 1020.5 - 0.0
25/03:30pm 12.8 8.7 6.4 65 3.1 N 17 20 9 11 1020.6 - 0.0
25/03:00pm 12.4 8.6 5.6 63 3.2 N 15 20 8 11 1021.0 1021.0 0.0
25/02:30pm 13.0 8.9 6.1 63 3.3 N 17 22 9 12 1021.2 - 0.0
25/02:00pm 12.6 8.0 5.5 62 3.3 N 19 24 10 13 1021.5 - 0.0
25/01:30pm 13.7 10.0 6.3 61 3.6 NNW 15 20 8 11 1021.8 - 0.0
25/01:00pm 12.7 8.9 5.8 63 3.3 N 15 19 8 10 1022.5 - 0.0
25/12:30pm 13.2 9.2 4.9 57 3.9 N 15 22 8 12 1023.2 - 0.0
25/12:00pm 13.1 8.2 5.0 58 3.7 NNE 20 28 11 15 1023.7 1023.7 0.0
25/11:30am 11.9 8.3 4.9 62 3.2 N 13 19 7 10 1023.9 - 0.0
25/11:00am 11.6 7.8 3.9 59 3.5 N 13 17 7 9 1024.4 - 0.0
25/10:30am 12.2 8.9 4.7 60 3.4 NNE 11 15 6 8 1024.6 - 0.0
25/10:00am 11.2 7.9 6.3 72 2.3 N 13 19 7 10 1024.7 - 0.0
25/09:30am 10.7 7.3 5.7 71 2.3 N 13 17 7 9 1024.6 - 0.0
25/09:00am 10.4 7.2 5.2 70 2.4 N 11 17 6 9 1024.4 1024.4 0.2
25/08:30am 9.9 7.0 4.9 71 2.3 NNE 9 13 5 7 1024.4 - 0.2
25/08:00am 9.3 6.9 5.1 75 1.9 NE 7 9 4 5 1024.3 - 0.2
25/07:30am 8.8 7.7 5.2 78 1.6 CALM 0 0 0 0 1024.2 - 0.2
25/07:00am 8.9 7.4 4.9 76 1.8 N 2 7 1 4 1024.1 - 0.2
25/06:30am 8.8 6.4 5.4 79 1.5 NNE 7 9 4 5 1023.9 - 0.2
25/06:00am 8.7 6.9 5.6 81 1.4 NNW 4 9 2 5 1023.8 1023.8 0.2
25/05:30am 8.7 6.5 5.4 80 1.5 NNW 6 9 3 5 1023.7 - 0.2
25/05:00am 8.4 6.0 5.3 81 1.4 NNE 7 9 4 5 1023.7 - 0.2
25/04:30am 8.3 5.9 5.4 82 1.3 NNE 7 13 4 7 1023.6 - 0.2
25/04:00am 7.8 6.5 5.9 88 0.9 N 2 9 1 5 1023.5 - 0.2
25/03:30am 7.5 5.7 5.5 87 0.9 NNW 4 7 2 4 1023.6 - 0.0
25/03:00am 7.8 6.8 5.6 86 1.0 CALM 0 0 0 0 1023.7 1023.7 0.0
25/02:30am 8.7 7.9 6.3 85 1.1 CALM 0 0 0 0 1023.8 - 0.0
25/02:00am 9.0 6.9 5.7 80 1.5 NE 6 9 3 5 1023.9 - 0.0
25/01:30am 9.1 6.9 6.0 81 1.4 NNW 7 9 4 5 1023.9 - 0.0
25/01:00am 9.2 8.0 6.5 83 1.3 NNW 2 7 1 4 1024.0 - 0.0
25/12:30am 9.2 8.4 6.5 83 1.3 CALM 0 0 0 0 1024.2 - 0.0
25/12:00am 9.2 7.6 6.5 83 1.3 WNW 4 7 2 4 1024.1 1024.1 0.0
 
Date/Time
CST
Temp
°C
App
Temp
°C
Dew
Point
°C
Rel
Hum
%
Delta-T
°C
Wind Press
QNH
hPa
Press
MSL
hPa
Rain since
9am
mm
Dir  Spd
km/h
Gust
km/h
Spd
kts
Gust
kts
24/11:30pm 9.0 6.8 6.4 84 1.2 ENE 7 9 4 5 1024.1 - 0.0
24/11:00pm 9.1 8.3 6.7 85 1.1 CALM 0 7 0 4 1024.0 - 0.0
24/10:30pm 9.1 8.4 6.9 86 1.0 CALM 0 2 0 1 1024.0 - 0.0
24/10:00pm 9.1 8.4 6.9 86 1.0 CALM 0 2 0 1 1024.0 - 0.0
24/09:30pm 9.2 8.1 6.8 85 1.1 NE 2 7 1 4 1023.9 - 0.0
24/09:00pm 9.2 8.4 6.6 84 1.2 CALM 0 0 0 0 1024.0 1024.0 0.0
24/08:30pm 9.8 9.2 7.4 85 1.1 CALM 0 0 0 0 1024.0 - 0.0
24/08:00pm 10.0 8.9 6.7 80 1.6 ENE 2 7 1 4 1023.8 - 0.0
24/07:30pm 10.2 9.0 6.4 77 1.8 S 2 6 1 3 1023.6 - 0.0
24/07:00pm 10.3 8.2 6.5 77 1.8 SSW 7 11 4 6 1023.4 - 0.0
24/06:30pm 10.3 8.2 6.6 78 1.7 SW 7 7 4 4 1023.0 - 0.0
24/06:00pm 10.6 8.5 6.7 77 1.8 WSW 7 9 4 5 1022.5 1022.5 0.0
24/05:30pm 10.8 8.2 6.2 73 2.2 SW 9 13 5 7 1022.3 - 0.0
24/05:00pm 11.1 7.5 5.0 66 2.8 WSW 13 24 7 13 1022.0 - 0.0
24/04:30pm 12.1 8.0 4.6 60 3.4 SW 15 19 8 10 1021.7 - 0.0
24/04:00pm 12.5 7.5 4.5 58 3.7 SSW 20 28 11 15 1021.3 - 0.0
24/03:30pm 12.8 7.9 5.0 59 3.6 SW 20 26 11 14 1020.8 - 0.0
24/03:00pm 12.9 8.2 6.0 63 3.3 SW 20 30 11 16 1020.5 1020.5 0.0
24/02:30pm 13.2 9.7 7.2 67 2.9 SSW 15 20 8 11 1020.3 - 0.0
24/02:00pm 13.3 9.4 7.1 66 3.0 S 17 30 9 16 1020.3 - 0.0
24/01:30pm 11.4 6.2 7.3 76 2.0 SW 24 32 13 17 1020.5 - 0.0
24/01:00pm 13.9 9.5 7.2 64 3.3 SSW 20 26 11 14 1020.4 - 0.0
24/12:30pm 12.5 8.4 7.8 73 2.3 WSW 19 26 10 14 1020.5 - 0.0
24/12:00pm 11.1 6.9 8.3 83 1.4 WSW 20 32 11 17 1020.8 1020.8 0.0
24/11:30am 13.0 8.9 7.9 71 2.5 SSW 19 24 10 13 1020.6 - 0.0
24/11:00am 12.2 8.4 9.0 81 1.6 SW 19 24 10 13 1020.7 - 0.0
24/10:30am 10.8 5.8 8.2 84 1.3 SSW 24 35 13 19 1020.7 - 0.0
24/10:00am 11.2 7.6 6.7 74 2.1 SW 15 19 8 10 1020.1 - 0.0
24/09:30am 10.1 6.8 6.3 77 1.8 SW 13 20 7 11 1019.6 - 0.0
24/09:00am 9.4 6.0 5.8 78 1.6 W 13 17 7 9 1019.3 1019.4 5.8
24/08:30am 7.4 4.2 4.9 84 1.1 WNW 11 15 6 8 1018.4 - 5.8
24/08:00am 6.5 2.3 3.8 83 1.2 W 15 17 8 9 1017.9 - 5.8
24/07:30am 6.2 1.2 3.7 84 1.1 W 19 20 10 11 1017.5 - 5.8
24/07:00am 5.7 1.4 3.5 86 0.9 WNW 15 17 8 9 1017.0 - 5.6
24/06:30am 6.6 1.9 3.4 80 1.4 W 17 19 9 10 1016.5 - 5.6
24/06:00am 7.0 2.0 3.8 80 1.4 W 19 22 10 12 1016.2 1016.3 5.6
24/05:30am 7.3 2.4 4.1 80 1.4 WSW 19 22 10 12 1015.9 - 5.6
24/05:00am 7.6 3.1 4.4 80 1.4 WSW 17 22 9 12 1015.6 - 5.6
24/04:30am 7.9 3.0 5.0 82 1.3 W 20 24 11 13 1015.2 - 5.6
24/04:00am 8.5 2.9 5.4 81 1.4 WSW 24 30 13 16 1014.8 - 5.6
24/03:30am 8.1 3.4 6.2 88 0.9 W 20 24 11 13 1014.5 - 5.6
24/03:00am 8.5 3.5 6.6 88 0.9 W 22 26 12 14 1014.0 1014.0 5.6
24/02:30am 8.9 4.4 7.0 88 0.9 WSW 20 24 11 13 1013.8 - 5.6
24/02:00am 8.6 4.7 7.2 91 0.7 W 17 20 9 11 1013.5 - 5.4
24/01:30am 8.8 2.4 7.1 89 0.8 WSW 30 43 16 23 1013.3 - 5.4
24/01:00am 8.4 2.3 6.4 87 0.9 W 28 35 15 19 1012.9 - 5.4
24/12:30am 8.3 3.2 5.9 85 1.1 WNW 22 26 12 14 1012.8 - 5.2
24/12:00am 8.7 2.1 6.2 84 1.2 WNW 30 37 16 20 1012.6 1012.6 5.2
 
Date/Time
CST
Temp
°C
App
Temp
°C
Dew
Point
°C
Rel
Hum
%
Delta-T
°C
Wind Press
QNH
hPa
Press
MSL
hPa
Rain since
9am
mm
Dir  Spd
km/h
Gust
km/h
Spd
kts
Gust
kts
23/11:30pm 7.9 2.6 5.2 83 1.2 WNW 22 28 12 15 1012.2 - 5.2
23/11:00pm 7.9 3.7 5.5 85 1.1 WNW 17 24 9 13 1012.3 - 5.2
23/10:30pm 7.7 3.1 5.5 86 1.0 WNW 19 20 10 11 1011.8 - 5.2
23/10:00pm 7.3 3.5 5.8 90 0.7 WNW 15 19 8 10 1011.9 - 5.2
23/09:30pm 8.4 3.8 6.5 88 0.9 W 20 28 11 15 1011.8 - 5.2
23/09:00pm 8.0 3.5 6.0 87 0.9 W 19 22 10 12 1011.5 1011.5 5.0
23/08:30pm 8.9 3.2 6.5 85 1.1 W 26 35 14 19 1011.1 - 5.0
23/08:00pm 9.1 4.9 7.5 90 0.8 WNW 19 20 10 11 1010.7 - 4.8
23/07:30pm 8.9 5.1 7.4 90 0.7 W 17 20 9 11 1010.4 - 4.8
23/07:00pm 9.5 2.6 7.3 86 1.0 WSW 33 52 18 28 1010.0 - 4.8
23/06:50pm 9.9 3.2 7.5 85 1.1 W 32 44 17 24 1009.8 - 4.8
23/06:30pm 9.5 5.1 7.3 86 1.0 W 20 26 11 14 1009.2 - 4.8
23/06:00pm 10.6 5.9 7.7 82 1.4 WSW 22 26 12 14 1008.8 1008.8 4.4
23/05:30pm 11.0 4.1 7.3 78 1.8 WSW 33 43 18 23 1008.2 - 4.4
23/05:00pm 11.9 6.5 7.8 76 2.0 W 26 37 14 20 1007.5 - 4.4
23/04:30pm 12.4 7.5 10.0 85 1.2 W 26 33 14 18 1007.1 - 4.4
23/04:00pm 12.1 6.9 10.3 89 0.9 W 28 37 15 20 1006.9 - 4.4
23/03:30pm 11.5 6.3 10.1 91 0.7 W 28 37 15 20 1006.8 - 4.4
23/03:00pm 11.1 5.4 9.9 92 0.6 WSW 30 43 16 23 1006.7 1006.8 4.2
23/02:30pm 10.8 4.4 9.4 91 0.7 SW 33 43 18 23 1006.5 - 3.8
23/02:00pm 12.0 7.2 10.4 90 0.8 WNW 26 35 14 19 1005.9 - 2.0
23/01:30pm 11.9 5.6 9.8 87 1.1 WNW 33 43 18 23 1006.2 - 1.0
23/01:00pm 12.5 6.3 10.0 85 1.3 WNW 33 46 18 25 1006.5 - 1.0
23/12:31pm 11.5 4.8 9.6 88 1.0 WNW 35 54 19 29 1007.1 - 0.8
23/12:30pm 11.6 5.0 9.9 89 0.9 WNW 35 50 19 27 1007.1 - 0.6
23/12:00pm 12.9 4.3 9.0 77 2.0 NW 44 59 24 32 1006.9 1007.0 0.0
23/11:30am 12.2 5.0 9.2 82 1.5 NW 37 52 20 28 1006.9 - 0.0
23/11:03am 12.3 4.2 8.6 78 1.8 NW 41 59 22 32 1007.4 - 0.0
23/11:00am 12.9 5.0 8.0 72 2.4 NW 39 50 21 27 1007.5 - 0.0
23/10:30am 13.1 4.3 8.0 71 2.5 NW 44 61 24 33 1007.3 - 0.0
23/10:00am 12.7 4.5 8.0 73 2.3 NW 41 52 22 28 1007.2 - 0.0
23/09:32am 11.9 4.7 7.8 76 2.0 NW 35 54 19 29 1007.0 - 0.0
23/09:30am 11.8 4.6 7.5 75 2.1 NW 35 50 19 27 1007.0 - 0.0
23/09:00am 10.7 3.7 7.0 78 1.8 NW 33 44 18 24 1007.2 1007.3 0.2
23/08:30am 9.2 4.1 6.1 81 1.4 NNW 22 32 12 17 1007.4 - 0.2
23/08:00am 8.4 2.1 5.5 82 1.3 NNW 28 39 15 21 1007.4 - 0.2
23/07:30am 8.4 2.9 5.7 83 1.2 NNW 24 35 13 19 1007.8 - 0.2
23/07:00am 9.4 2.8 5.9 79 1.6 NNW 30 39 16 21 1007.6 - 0.2
23/06:30am 9.5 3.3 6.0 79 1.6 NNW 28 41 15 22 1007.6 - 0.2
23/06:00am 8.9 3.1 6.3 84 1.2 NNW 26 33 14 18 1007.6 1007.7 0.2
23/05:30am 8.8 3.4 6.4 85 1.1 NNW 24 33 13 18 1008.0 - 0.2
23/05:00am 9.0 3.7 7.0 87 0.9 NNW 24 33 13 18 1008.1 - 0.2
23/04:30am 9.1 3.5 7.2 88 0.9 N 26 35 14 19 1008.2 - 0.2
23/04:00am 9.2 4.8 7.2 87 0.9 NNW 20 26 11 14 1008.7 - 0.2
23/03:30am 10.0 4.5 7.6 85 1.2 NNW 26 32 14 17 1009.0 - 0.2
23/03:00am 9.7 4.6 7.5 86 1.1 NNW 24 32 13 17 1009.3 1009.3 0.2
23/02:30am 9.9 4.3 7.3 84 1.2 NNW 26 32 14 17 1009.4 - 0.2
23/02:00am 10.5 5.0 7.6 82 1.4 NNW 26 35 14 19 1009.8 - 0.2
23/01:30am 10.8 5.4 7.9 82 1.4 NW 26 37 14 20 1010.0 - 0.2
23/01:00am 11.4 6.5 8.3 81 1.5 NW 24 32 13 17 1010.2 - 0.2
23/12:30am 11.6 6.7 8.5 81 1.5 NW 24 32 13 17 1010.6 - 0.2
23/12:00am 11.3 6.4 8.5 83 1.4 NNW 24 32 13 17 1010.9 1010.9 0.2

Other Formats:

Comma delimited format used in spreadsheet applications
http://www.bom.gov.au/fwo/IDS60801/IDS60801.95654.axf

JavaScript Object Notation format (JSON) in row-major order
http://www.bom.gov.au/fwo/IDS60801/IDS60801.95654.json